LZIB METAR and TAF | Updated Today

LZIB METAR

M. R. Štefánik Airport

Observation time: 12 min. ago

LZIB 062030Z 32002KT CAVOK 13/12 Q1030 NOSIG

Need help? Read our tutorial on how to read METARs or read the parsed version below.

M. R. Štefánik Airport (LZIB) METAR

  • Weather conditions on Thu, 06 Oct 2022 20:30:00 +0000 (12 min. ago):
  • Present conditions: Dry
  • Clouds: Clear skies
  • Visibility: Greater than 10 km
  • Wind: 320 degrees at 2 knots
  • Temperature: 13 celsius
  • Dew point: 12 celsius
  • Pressure: 1030 millibars
  • Remarks: None


Useful to know...

LZIB TAF

M. R. Štefánik Airport

TAF LZIB 061715Z 0618/0718 VRB02KT CAVOK PROB40 TEMPO 0702/0706 2500 BR BCFG BKN002 BECMG 0708/0710 14012KT
Observation time: 3:27 hr. ago
Need help? Read our tutorial on how to read TAFs or read the parsed version below.

Parsed version of TAF for M. R. Štefánik Airport (LZIB)

  • From 06 October at 18:00 UTC, to day 07 of the month at 18:00 UTC
  • Visibility: Greater than 10 km
  • Wind: Variable at 2
  • Expected to arise temporarily, from 07 October at 02:00 UTC, to day 07 of the month at 06:00 UTC
    Probability of 40%
  • Clouds: Broken sky at 61 meters
  • Visibility: 2500 meters
  • Other: Mist; patches of fog
  • Expected to arise soon, from 07 October at 08:00 UTC, to day 07 of the month at 10:00 UTC
  • Wind: 140 degrees at 12